BTK8065 WADD-WIBB
Flight info
| Callsign | BTK8065 |
|---|---|
| Flight time | 2h 30m |
| Altitude | 36000 |
| Route | OKANG1B/09 OKAN1B OKANG T4 FARIZ T6 CKG T10 OVSET OVSE1G |
| Aircraft | A320/M-SDE3FGHIRWY/LB1 |
Departure
| Time | 2026-04-18 06:49 |
|---|---|
| Airport | Denpasar I Gusti Ngurah Rai International Airport (WADD) |
Arrival
| Time | 2026-04-18 09:19 |
|---|---|
| Airport | Sultan Syarif Kasim II International Airport / Roesmin Nurjadin AFB (WIBB) |
| Time | Latitude | Longitude | Altitude | Speed | Heading |
|---|---|---|---|---|---|
| 2026-04-18 06:32 | -8.74566 | 115.16206 | 20 ft | 0 kts | 358° |
| 2026-04-18 06:39 | -8.74568 | 115.16206 | 20 ft | 2 kts | 358° |
| 2026-04-18 06:39 | -8.74583 | 115.16207 | 20 ft | 2 kts | 357° |
| 2026-04-18 06:39 | -8.74598 | 115.16207 | 20 ft | 2 kts | 357° |
| 2026-04-18 06:40 | -8.74613 | 115.16208 | 20 ft | 2 kts | 357° |
| 2026-04-18 06:40 | -8.74628 | 115.16209 | 19 ft | 2 kts | 357° |
| 2026-04-18 06:40 | -8.74643 | 115.16209 | 19 ft | 2 kts | 357° |
| 2026-04-18 06:40 | -8.74658 | 115.16210 | 19 ft | 1 kts | 357° |
| 2026-04-18 06:41 | -8.74668 | 115.16210 | 19 ft | 2 kts | 347° |
| 2026-04-18 06:41 | -8.74682 | 115.16217 | 19 ft | 2 kts | 320° |
| 2026-04-18 06:41 | -8.74691 | 115.16229 | 19 ft | 2 kts | 294° |
| 2026-04-18 06:41 | -8.74695 | 115.16242 | 19 ft | 0 kts | 271° |
| 2026-04-18 06:42 | -8.74695 | 115.16249 | 19 ft | 1 kts | 266° |
| 2026-04-18 06:42 | -8.74694 | 115.16251 | 19 ft | 0 kts | 267° |
| 2026-04-18 06:45 | -8.74695 | 115.16246 | 19 ft | 2 kts | 268° |
| 2026-04-18 06:45 | -8.74696 | 115.16215 | 18 ft | 6 kts | 268° |
| 2026-04-18 06:45 | -8.74698 | 115.16160 | 18 ft | 9 kts | 267° |
| 2026-04-18 06:45 | -8.74702 | 115.16084 | 17 ft | 12 kts | 267° |
| 2026-04-18 06:46 | -8.74707 | 115.15989 | 16 ft | 14 kts | 268° |
| 2026-04-18 06:46 | -8.74710 | 115.15903 | 14 ft | 15 kts | 267° |
| 2026-04-18 06:46 | -8.74715 | 115.15784 | 13 ft | 17 kts | 269° |
| 2026-04-18 06:46 | -8.74718 | 115.15659 | 12 ft | 18 kts | 268° |
| 2026-04-18 06:47 | -8.74724 | 115.15531 | 12 ft | 18 kts | 268° |
| 2026-04-18 06:47 | -8.74730 | 115.15436 | 12 ft | 11 kts | 256° |
| 2026-04-18 06:47 | -8.74790 | 115.15389 | 11 ft | 12 kts | 181° |
| 2026-04-18 06:47 | -8.74875 | 115.15392 | 12 ft | 10 kts | 173° |
| 2026-04-18 06:48 | -8.74895 | 115.15410 | 12 ft | 0 kts | 87° |
| 2026-04-18 06:48 | -8.74893 | 115.15441 | 12 ft | 21 kts | 88° |
| 2026-04-18 06:48 | -8.74877 | 115.15829 | 15 ft | 87 kts | 88° |
| 2026-04-18 06:48 | -8.74846 | 115.16637 | 18 ft | 141 kts | 87° |
| 2026-04-18 06:49 | -8.74796 | 115.17709 | 371 ft | 155 kts | 89° |
| 2026-04-18 06:49 | -8.74748 | 115.18784 | 946 ft | 154 kts | 89° |
| 2026-04-18 06:49 | -8.74710 | 115.19895 | 1265 ft | 163 kts | 89° |
| 2026-04-18 06:49 | -8.74669 | 115.21078 | 1520 ft | 176 kts | 89° |
| 2026-04-18 06:50 | -8.74621 | 115.22367 | 1784 ft | 190 kts | 89° |
| 2026-04-18 06:50 | -8.74413 | 115.23729 | 2017 ft | 208 kts | 66° |
| 2026-04-18 06:50 | -8.73339 | 115.24797 | 2224 ft | 233 kts | 25° |
| 2026-04-18 06:50 | -8.71700 | 115.25182 | 2558 ft | 252 kts | 10° |
| 2026-04-18 06:51 | -8.69873 | 115.25445 | 2922 ft | 269 kts | 9° |
| 2026-04-18 06:51 | -8.67993 | 115.25713 | 3487 ft | 276 kts | 9° |
| 2026-04-18 06:51 | -8.66092 | 115.25980 | 4195 ft | 278 kts | 9° |
| 2026-04-18 06:51 | -8.64175 | 115.26252 | 4932 ft | 279 kts | 9° |
| 2026-04-18 06:52 | -8.62237 | 115.26530 | 5666 ft | 280 kts | 9° |
| 2026-04-18 06:52 | -8.60297 | 115.26805 | 6383 ft | 282 kts | 8° |
| 2026-04-18 06:52 | -8.58366 | 115.26763 | 7038 ft | 287 kts | 344° |
| 2026-04-18 06:52 | -8.56644 | 115.25702 | 7678 ft | 292 kts | 311° |
| 2026-04-18 06:53 | -8.55467 | 115.24014 | 8351 ft | 295 kts | 304° |
| 2026-04-18 06:53 | -8.54299 | 115.22308 | 8940 ft | 299 kts | 306° |
| 2026-04-18 06:53 | -8.53081 | 115.20574 | 9559 ft | 303 kts | 306° |
| 2026-04-18 06:53 | -8.51854 | 115.18825 | 10163 ft | 306 kts | 306° |
| 2026-04-18 06:54 | -8.50603 | 115.17033 | 10552 ft | 318 kts | 306° |
| 2026-04-18 06:54 | -8.49304 | 115.15166 | 10822 ft | 333 kts | 306° |
| 2026-04-18 06:54 | -8.47932 | 115.13193 | 11067 ft | 347 kts | 306° |
| 2026-04-18 06:54 | -8.46526 | 115.11166 | 11528 ft | 354 kts | 306° |
| 2026-04-18 06:55 | -8.45124 | 115.09139 | 12060 ft | 358 kts | 306° |
| 2026-04-18 06:55 | -8.43684 | 115.07056 | 12677 ft | 362 kts | 307° |
| 2026-04-18 06:55 | -8.42233 | 115.04956 | 13333 ft | 365 kts | 307° |
| 2026-04-18 06:55 | -8.40759 | 115.02829 | 13931 ft | 367 kts | 307° |
| 2026-04-18 06:56 | -8.39295 | 115.00715 | 14371 ft | 371 kts | 307° |
| 2026-04-18 06:56 | -8.37809 | 114.98568 | 14814 ft | 374 kts | 307° |
| 2026-04-18 06:56 | -8.36308 | 114.96401 | 15257 ft | 377 kts | 307° |
| 2026-04-18 06:56 | -8.34791 | 114.94209 | 15700 ft | 380 kts | 307° |
| 2026-04-18 06:57 | -8.33274 | 114.92018 | 16120 ft | 383 kts | 307° |
| 2026-04-18 06:57 | -8.30191 | 114.87566 | 16936 ft | 389 kts | 307° |
| 2026-04-18 06:57 | -8.28641 | 114.85329 | 17334 ft | 392 kts | 307° |
| 2026-04-18 06:58 | -8.27082 | 114.83078 | 17721 ft | 394 kts | 307° |
| 2026-04-18 06:58 | -8.25505 | 114.80801 | 18115 ft | 396 kts | 307° |
| 2026-04-18 06:58 | -8.23908 | 114.78496 | 18514 ft | 398 kts | 307° |
| 2026-04-18 06:58 | -8.22323 | 114.76208 | 18894 ft | 400 kts | 307° |
| 2026-04-18 06:59 | -8.20724 | 114.73902 | 19274 ft | 401 kts | 307° |
| 2026-04-18 06:59 | -8.19137 | 114.71610 | 19628 ft | 403 kts | 307° |
| 2026-04-18 06:59 | -8.17532 | 114.69296 | 19977 ft | 404 kts | 307° |
| 2026-04-18 06:59 | -8.15903 | 114.66948 | 20342 ft | 405 kts | 307° |
| 2026-04-18 07:00 | -8.14282 | 114.64611 | 20697 ft | 407 kts | 307° |
| 2026-04-18 07:00 | -8.12666 | 114.62280 | 21018 ft | 409 kts | 307° |
| 2026-04-18 07:00 | -8.11043 | 114.59941 | 21350 ft | 410 kts | 307° |
| 2026-04-18 07:00 | -8.09396 | 114.57569 | 21691 ft | 411 kts | 307° |
| 2026-04-18 07:01 | -8.07762 | 114.55213 | 22021 ft | 412 kts | 307° |
| 2026-04-18 07:01 | -8.06096 | 114.52814 | 22363 ft | 414 kts | 307° |
| 2026-04-18 07:01 | -8.04447 | 114.50438 | 22688 ft | 415 kts | 307° |
| 2026-04-18 07:01 | -8.02800 | 114.48065 | 22989 ft | 417 kts | 307° |
| 2026-04-18 07:02 | -8.01116 | 114.45642 | 23287 ft | 419 kts | 307° |
| 2026-04-18 07:02 | -7.99430 | 114.43216 | 23599 ft | 421 kts | 307° |
| 2026-04-18 07:02 | -7.97727 | 114.40765 | 23900 ft | 423 kts | 307° |
| 2026-04-18 07:02 | -7.96028 | 114.38317 | 24189 ft | 425 kts | 307° |
| 2026-04-18 07:03 | -7.94349 | 114.35902 | 24472 ft | 427 kts | 307° |
| 2026-04-18 07:03 | -7.92632 | 114.33430 | 24750 ft | 429 kts | 307° |
| 2026-04-18 07:03 | -7.90910 | 114.30952 | 25020 ft | 431 kts | 307° |
| 2026-04-18 07:03 | -7.89202 | 114.28497 | 25295 ft | 432 kts | 307° |
| 2026-04-18 07:04 | -7.87461 | 114.25991 | 25562 ft | 434 kts | 307° |
| 2026-04-18 07:04 | -7.85701 | 114.23457 | 25804 ft | 437 kts | 307° |
| 2026-04-18 07:04 | -7.83953 | 114.20944 | 26054 ft | 439 kts | 307° |
| 2026-04-18 07:04 | -7.82217 | 114.18445 | 26298 ft | 440 kts | 307° |
| 2026-04-18 07:05 | -7.80445 | 114.15896 | 26537 ft | 442 kts | 307° |
| 2026-04-18 07:05 | -7.78693 | 114.13376 | 26771 ft | 444 kts | 306° |
| 2026-04-18 07:05 | -7.76911 | 114.10815 | 26998 ft | 446 kts | 306° |
| 2026-04-18 07:05 | -7.75111 | 114.08226 | 27231 ft | 448 kts | 306° |
| 2026-04-18 07:06 | -7.73365 | 114.05611 | 27462 ft | 450 kts | 304° |
| 2026-04-18 07:06 | -7.71666 | 114.02999 | 27675 ft | 452 kts | 304° |
| 2026-04-18 07:06 | -7.69932 | 114.00320 | 27893 ft | 453 kts | 304° |
| 2026-04-18 07:06 | -7.68214 | 113.97669 | 28112 ft | 455 kts | 304° |
| 2026-04-18 07:07 | -7.66477 | 113.94992 | 28323 ft | 457 kts | 304° |
| 2026-04-18 07:07 | -7.64729 | 113.92302 | 28530 ft | 458 kts | 304° |
| 2026-04-18 07:07 | -7.62990 | 113.89630 | 28744 ft | 460 kts | 304° |
| 2026-04-18 07:07 | -7.61233 | 113.86930 | 28979 ft | 461 kts | 304° |
| 2026-04-18 07:08 | -7.59474 | 113.84229 | 29202 ft | 462 kts | 304° |
| 2026-04-18 07:08 | -7.57712 | 113.81525 | 29439 ft | 462 kts | 304° |
| 2026-04-18 07:08 | -7.55939 | 113.78805 | 29656 ft | 464 kts | 304° |
| 2026-04-18 07:08 | -7.54162 | 113.76080 | 29873 ft | 465 kts | 304° |
| 2026-04-18 07:09 | -7.52386 | 113.73356 | 30084 ft | 466 kts | 303° |
| 2026-04-18 07:09 | -7.50629 | 113.70662 | 30292 ft | 467 kts | 303° |
| 2026-04-18 07:09 | -7.48836 | 113.67911 | 30495 ft | 468 kts | 303° |
| 2026-04-18 07:09 | -7.47045 | 113.65166 | 30697 ft | 469 kts | 303° |
| 2026-04-18 07:10 | -7.45262 | 113.62435 | 30898 ft | 469 kts | 303° |
| 2026-04-18 07:10 | -7.43465 | 113.59681 | 31090 ft | 470 kts | 303° |
| 2026-04-18 07:10 | -7.41666 | 113.56924 | 31268 ft | 471 kts | 303° |
| 2026-04-18 07:10 | -7.39865 | 113.54166 | 31491 ft | 471 kts | 303° |
| 2026-04-18 07:11 | -7.38064 | 113.51408 | 31753 ft | 470 kts | 303° |
| 2026-04-18 07:11 | -7.36274 | 113.48668 | 32033 ft | 468 kts | 303° |
| 2026-04-18 07:11 | -7.34495 | 113.45944 | 32304 ft | 467 kts | 303° |
| 2026-04-18 07:11 | -7.32714 | 113.43218 | 32563 ft | 466 kts | 303° |
| 2026-04-18 07:12 | -7.30936 | 113.40497 | 32847 ft | 464 kts | 303° |
| 2026-04-18 07:12 | -7.29157 | 113.37774 | 33128 ft | 463 kts | 303° |
| 2026-04-18 07:12 | -7.27407 | 113.35094 | 33402 ft | 462 kts | 303° |
| 2026-04-18 07:12 | -7.25628 | 113.32374 | 33673 ft | 461 kts | 304° |
| 2026-04-18 07:13 | -7.23876 | 113.29693 | 33935 ft | 460 kts | 304° |
| 2026-04-18 07:13 | -7.22097 | 113.26973 | 34197 ft | 460 kts | 304° |
| 2026-04-18 07:13 | -7.20355 | 113.24309 | 34403 ft | 460 kts | 304° |
| 2026-04-18 07:13 | -7.18597 | 113.21622 | 34579 ft | 460 kts | 304° |
| 2026-04-18 07:14 | -7.16839 | 113.18935 | 34741 ft | 461 kts | 304° |
| 2026-04-18 07:14 | -7.15069 | 113.16232 | 34904 ft | 461 kts | 304° |
| 2026-04-18 07:14 | -7.13295 | 113.13522 | 35075 ft | 462 kts | 304° |
| 2026-04-18 07:14 | -7.11545 | 113.10847 | 35223 ft | 462 kts | 304° |
| 2026-04-18 07:15 | -7.09776 | 113.08147 | 35357 ft | 463 kts | 304° |
| 2026-04-18 07:15 | -7.08007 | 113.05447 | 35493 ft | 463 kts | 304° |
| 2026-04-18 07:15 | -7.06225 | 113.02724 | 35619 ft | 464 kts | 304° |
| 2026-04-18 07:15 | -7.04455 | 113.00022 | 35731 ft | 464 kts | 304° |
| 2026-04-18 07:16 | -7.02675 | 112.97306 | 35838 ft | 465 kts | 304° |
| 2026-04-18 07:16 | -7.00894 | 112.94589 | 35861 ft | 465 kts | 304° |
| 2026-04-18 07:16 | -6.97326 | 112.89144 | 35867 ft | 466 kts | 304° |
| 2026-04-18 07:17 | -6.93773 | 112.83726 | 35861 ft | 466 kts | 304° |
| 2026-04-18 07:17 | -6.90193 | 112.78267 | 35855 ft | 465 kts | 304° |
| 2026-04-18 07:18 | -6.86630 | 112.72835 | 35854 ft | 465 kts | 304° |
| 2026-04-18 07:18 | -6.83066 | 112.67405 | 35851 ft | 465 kts | 304° |
| 2026-04-18 07:19 | -6.79512 | 112.61991 | 35853 ft | 465 kts | 304° |
| 2026-04-18 07:19 | -6.75933 | 112.56541 | 35853 ft | 465 kts | 304° |
| 2026-04-18 07:20 | -6.72377 | 112.51127 | 35852 ft | 465 kts | 303° |
| 2026-04-18 07:20 | -6.68821 | 112.45716 | 35851 ft | 465 kts | 303° |
| 2026-04-18 07:21 | -6.65248 | 112.40279 | 35852 ft | 465 kts | 303° |
| 2026-04-18 07:21 | -6.61708 | 112.34895 | 35850 ft | 465 kts | 304° |
| 2026-04-18 07:22 | -6.58132 | 112.29457 | 35852 ft | 465 kts | 304° |
| 2026-04-18 07:22 | -6.54566 | 112.24037 | 35849 ft | 465 kts | 304° |
| 2026-04-18 07:23 | -6.51004 | 112.18623 | 35852 ft | 464 kts | 304° |
| 2026-04-18 07:23 | -6.47434 | 112.13200 | 35851 ft | 464 kts | 304° |
| 2026-04-18 07:24 | -6.43875 | 112.07794 | 35853 ft | 464 kts | 303° |
| 2026-04-18 07:24 | -6.40325 | 112.02402 | 35851 ft | 464 kts | 303° |
| 2026-04-18 07:25 | -6.36753 | 111.96979 | 35851 ft | 464 kts | 303° |
| 2026-04-18 07:25 | -6.33216 | 111.91608 | 35851 ft | 464 kts | 303° |
| 2026-04-18 07:26 | -6.29647 | 111.86186 | 35852 ft | 464 kts | 303° |
| 2026-04-18 07:26 | -6.26085 | 111.80783 | 35853 ft | 464 kts | 304° |
| 2026-04-18 07:27 | -6.22526 | 111.75404 | 35851 ft | 464 kts | 304° |
| 2026-04-18 07:27 | -6.18938 | 111.69974 | 35850 ft | 464 kts | 303° |
| 2026-04-18 07:28 | -6.15391 | 111.64603 | 35852 ft | 464 kts | 303° |
| 2026-04-18 07:28 | -6.11815 | 111.59187 | 35849 ft | 464 kts | 303° |
| 2026-04-18 07:29 | -6.08258 | 111.53801 | 35852 ft | 465 kts | 303° |
| 2026-04-18 07:29 | -6.04690 | 111.48398 | 35849 ft | 465 kts | 303° |
| 2026-04-18 07:30 | -6.01113 | 111.42984 | 35852 ft | 465 kts | 303° |
| 2026-04-18 07:30 | -5.97534 | 111.37563 | 35851 ft | 465 kts | 303° |
| 2026-04-18 07:31 | -5.93967 | 111.32165 | 35852 ft | 465 kts | 304° |
| 2026-04-18 07:31 | -5.90681 | 111.26557 | 35851 ft | 466 kts | 294° |
| 2026-04-18 07:32 | -5.88686 | 111.20355 | 35852 ft | 466 kts | 281° |
| 2026-04-18 07:32 | -5.88158 | 111.13923 | 35853 ft | 466 kts | 268° |
| 2026-04-18 07:33 | -5.88780 | 111.07435 | 35856 ft | 467 kts | 263° |
| 2026-04-18 07:33 | -5.89537 | 111.00993 | 35853 ft | 467 kts | 263° |
| 2026-04-18 07:34 | -5.90278 | 110.94501 | 35853 ft | 467 kts | 263° |
| 2026-04-18 07:34 | -5.91003 | 110.88030 | 35855 ft | 466 kts | 263° |
| 2026-04-18 07:35 | -5.91728 | 110.81517 | 35853 ft | 466 kts | 263° |
| 2026-04-18 07:35 | -5.92442 | 110.75085 | 35854 ft | 466 kts | 263° |
| 2026-04-18 07:36 | -5.93162 | 110.68594 | 35854 ft | 467 kts | 263° |
| 2026-04-18 07:36 | -5.93875 | 110.62151 | 35855 ft | 467 kts | 263° |
| 2026-04-18 07:37 | -5.94593 | 110.55669 | 35857 ft | 466 kts | 263° |
| 2026-04-18 07:37 | -5.95306 | 110.49221 | 35855 ft | 466 kts | 263° |
| 2026-04-18 07:38 | -5.96016 | 110.42786 | 35854 ft | 466 kts | 263° |
| 2026-04-18 07:38 | -5.96499 | 110.36275 | 35855 ft | 466 kts | 269° |
| 2026-04-18 07:39 | -5.96518 | 110.29742 | 35852 ft | 466 kts | 270° |
| 2026-04-18 07:39 | -5.96507 | 110.23270 | 35857 ft | 466 kts | 270° |
| 2026-04-18 07:40 | -5.96502 | 110.16791 | 35854 ft | 465 kts | 270° |
| 2026-04-18 07:40 | -5.96499 | 110.10294 | 35854 ft | 465 kts | 270° |
| 2026-04-18 07:41 | -5.96496 | 110.03801 | 35856 ft | 465 kts | 270° |
| 2026-04-18 07:41 | -5.96494 | 109.97341 | 35854 ft | 465 kts | 270° |
| 2026-04-18 07:42 | -5.96490 | 109.90856 | 35853 ft | 465 kts | 270° |
| 2026-04-18 07:42 | -5.96486 | 109.84354 | 35853 ft | 466 kts | 270° |
| 2026-04-18 07:43 | -5.96481 | 109.77863 | 35853 ft | 466 kts | 270° |
| 2026-04-18 07:43 | -5.96476 | 109.71388 | 35853 ft | 466 kts | 270° |
| 2026-04-18 07:44 | -5.96469 | 109.64907 | 35853 ft | 466 kts | 269° |
| 2026-04-18 07:44 | -5.96462 | 109.58402 | 35853 ft | 466 kts | 269° |
| 2026-04-18 07:45 | -5.96454 | 109.51902 | 35853 ft | 466 kts | 269° |
| 2026-04-18 07:45 | -5.96445 | 109.45406 | 35853 ft | 466 kts | 269° |
| 2026-04-18 07:46 | -5.96436 | 109.38940 | 35853 ft | 466 kts | 269° |
| 2026-04-18 07:46 | -5.96425 | 109.32412 | 35852 ft | 466 kts | 270° |
| 2026-04-18 07:47 | -5.96414 | 109.25922 | 35853 ft | 466 kts | 269° |
| 2026-04-18 07:47 | -5.96402 | 109.19437 | 35853 ft | 466 kts | 269° |
| 2026-04-18 07:48 | -5.96390 | 109.12920 | 35853 ft | 466 kts | 269° |
| 2026-04-18 07:48 | -5.96376 | 109.06417 | 35853 ft | 466 kts | 269° |
| 2026-04-18 07:49 | -5.96363 | 108.99959 | 35853 ft | 466 kts | 269° |
| 2026-04-18 07:49 | -5.96347 | 108.93431 | 35853 ft | 466 kts | 269° |
| 2026-04-18 07:50 | -5.96333 | 108.86954 | 35853 ft | 466 kts | 269° |
| 2026-04-18 07:50 | -5.96316 | 108.80439 | 35854 ft | 466 kts | 269° |
| 2026-04-18 07:51 | -5.96299 | 108.73984 | 35853 ft | 466 kts | 269° |
| 2026-04-18 07:51 | -5.96282 | 108.67480 | 35854 ft | 466 kts | 269° |
| 2026-04-18 07:52 | -5.96264 | 108.60962 | 35853 ft | 466 kts | 269° |
| 2026-04-18 07:52 | -5.96246 | 108.54488 | 35855 ft | 465 kts | 269° |
| 2026-04-18 07:53 | -5.96226 | 108.48011 | 35853 ft | 465 kts | 269° |
| 2026-04-18 07:53 | -5.96216 | 108.41518 | 35854 ft | 465 kts | 269° |
| 2026-04-18 07:54 | -5.96211 | 108.35042 | 35853 ft | 465 kts | 269° |
| 2026-04-18 07:54 | -5.96207 | 108.28596 | 35855 ft | 464 kts | 269° |
| 2026-04-18 07:55 | -5.96200 | 108.22096 | 35853 ft | 464 kts | 269° |
| 2026-04-18 07:55 | -5.96192 | 108.15633 | 35854 ft | 464 kts | 269° |
| 2026-04-18 07:56 | -5.96185 | 108.09183 | 35855 ft | 463 kts | 269° |
| 2026-04-18 07:56 | -5.96177 | 108.02715 | 35851 ft | 463 kts | 269° |
| 2026-04-18 07:57 | -5.96168 | 107.96273 | 35852 ft | 463 kts | 269° |
| 2026-04-18 07:57 | -5.96169 | 107.89803 | 35853 ft | 463 kts | 269° |
| 2026-04-18 07:58 | -5.96171 | 107.80144 | 35853 ft | 463 kts | 269° |
| 2026-04-18 07:59 | -5.96170 | 107.73678 | 35851 ft | 463 kts | 269° |
| 2026-04-18 07:59 | -5.96170 | 107.67243 | 35854 ft | 463 kts | 269° |
| 2026-04-18 08:00 | -5.96168 | 107.60777 | 35853 ft | 463 kts | 269° |
| 2026-04-18 08:00 | -5.96165 | 107.54328 | 35853 ft | 463 kts | 269° |
| 2026-04-18 08:01 | -5.96162 | 107.47867 | 35852 ft | 464 kts | 269° |
| 2026-04-18 08:01 | -5.96159 | 107.41402 | 35853 ft | 464 kts | 269° |
| 2026-04-18 08:02 | -5.96155 | 107.34969 | 35854 ft | 463 kts | 269° |
| 2026-04-18 08:02 | -5.96150 | 107.28454 | 35854 ft | 464 kts | 269° |
| 2026-04-18 08:03 | -5.96145 | 107.21978 | 35853 ft | 464 kts | 269° |
| 2026-04-18 08:03 | -5.96139 | 107.15512 | 35855 ft | 464 kts | 269° |
| 2026-04-18 08:04 | -5.95834 | 107.09199 | 35853 ft | 465 kts | 277° |
| 2026-04-18 08:04 | -5.94383 | 107.02869 | 35853 ft | 465 kts | 288° |
| 2026-04-18 08:05 | -5.91789 | 106.96930 | 35853 ft | 466 kts | 298° |
| 2026-04-18 08:05 | -5.88344 | 106.91397 | 35854 ft | 467 kts | 302° |
| 2026-04-18 08:06 | -5.84801 | 106.85928 | 35853 ft | 466 kts | 302° |
| 2026-04-18 08:06 | -5.81274 | 106.80460 | 35853 ft | 467 kts | 302° |
| 2026-04-18 08:07 | -5.77772 | 106.75013 | 35853 ft | 467 kts | 302° |
| 2026-04-18 08:07 | -5.74234 | 106.69503 | 35853 ft | 467 kts | 302° |
| 2026-04-18 08:08 | -5.70729 | 106.64046 | 35853 ft | 467 kts | 302° |
| 2026-04-18 08:08 | -5.67207 | 106.58561 | 35853 ft | 467 kts | 302° |
| 2026-04-18 08:09 | -5.63678 | 106.53068 | 35853 ft | 467 kts | 302° |
| 2026-04-18 08:09 | -5.60151 | 106.47580 | 35853 ft | 468 kts | 302° |
| 2026-04-18 08:10 | -5.56639 | 106.42116 | 35853 ft | 468 kts | 302° |
| 2026-04-18 08:10 | -5.53106 | 106.36620 | 35853 ft | 467 kts | 302° |
| 2026-04-18 08:11 | -5.49584 | 106.31143 | 35853 ft | 468 kts | 303° |
| 2026-04-18 08:11 | -5.46052 | 106.25652 | 35853 ft | 468 kts | 303° |
| 2026-04-18 08:12 | -5.42534 | 106.20185 | 35853 ft | 467 kts | 303° |
| 2026-04-18 08:12 | -5.39018 | 106.14719 | 35853 ft | 467 kts | 303° |
| 2026-04-18 08:13 | -5.35480 | 106.09221 | 35853 ft | 467 kts | 303° |
| 2026-04-18 08:13 | -5.31953 | 106.03741 | 35853 ft | 467 kts | 303° |
| 2026-04-18 08:14 | -5.28444 | 105.98287 | 35853 ft | 467 kts | 303° |
| 2026-04-18 08:14 | -5.24915 | 105.92806 | 35855 ft | 467 kts | 303° |
| 2026-04-18 08:15 | -5.21187 | 105.87489 | 35857 ft | 467 kts | 309° |
| 2026-04-18 08:15 | -5.16836 | 105.82650 | 35859 ft | 466 kts | 316° |
| 2026-04-18 08:16 | -5.11901 | 105.78373 | 35860 ft | 466 kts | 323° |
| 2026-04-18 08:16 | -5.06613 | 105.74573 | 35860 ft | 466 kts | 325° |
| 2026-04-18 08:17 | -5.01302 | 105.70813 | 35859 ft | 466 kts | 325° |
| 2026-04-18 08:17 | -4.95983 | 105.67040 | 35857 ft | 466 kts | 325° |
| 2026-04-18 08:18 | -4.90669 | 105.63264 | 35856 ft | 466 kts | 325° |
| 2026-04-18 08:18 | -4.85395 | 105.59517 | 35855 ft | 466 kts | 325° |
| 2026-04-18 08:19 | -4.80084 | 105.55742 | 35854 ft | 466 kts | 325° |
| 2026-04-18 08:19 | -4.74790 | 105.51981 | 35853 ft | 466 kts | 325° |
| 2026-04-18 08:20 | -4.69502 | 105.48224 | 35853 ft | 465 kts | 325° |
| 2026-04-18 08:20 | -4.64204 | 105.44460 | 35852 ft | 465 kts | 325° |
| 2026-04-18 08:21 | -4.58907 | 105.40698 | 35851 ft | 465 kts | 325° |
| 2026-04-18 08:21 | -4.53602 | 105.36932 | 35851 ft | 465 kts | 324° |
| 2026-04-18 08:22 | -4.48319 | 105.33181 | 35848 ft | 465 kts | 325° |
| 2026-04-18 08:22 | -4.43005 | 105.29409 | 35849 ft | 465 kts | 325° |
| 2026-04-18 08:23 | -4.37724 | 105.25661 | 35847 ft | 465 kts | 325° |
| 2026-04-18 08:23 | -4.32414 | 105.21892 | 35845 ft | 465 kts | 325° |
| 2026-04-18 08:24 | -4.27129 | 105.18140 | 35846 ft | 465 kts | 325° |
| 2026-04-18 08:24 | -4.21824 | 105.14374 | 35846 ft | 464 kts | 325° |
| 2026-04-18 08:25 | -4.16546 | 105.10627 | 35842 ft | 465 kts | 325° |
| 2026-04-18 08:25 | -4.11258 | 105.06823 | 35843 ft | 464 kts | 322° |
| 2026-04-18 08:26 | -4.06336 | 105.02608 | 35843 ft | 465 kts | 317° |
| 2026-04-18 08:26 | -4.01610 | 104.98187 | 35841 ft | 465 kts | 317° |
| 2026-04-18 08:27 | -3.96893 | 104.93763 | 35840 ft | 464 kts | 317° |
| 2026-04-18 08:27 | -3.92146 | 104.89317 | 35838 ft | 465 kts | 317° |
| 2026-04-18 08:28 | -3.87421 | 104.84895 | 35837 ft | 465 kts | 317° |
| 2026-04-18 08:28 | -3.82662 | 104.80442 | 35838 ft | 465 kts | 317° |
| 2026-04-18 08:29 | -3.77942 | 104.76028 | 35836 ft | 464 kts | 317° |
| 2026-04-18 08:29 | -3.73233 | 104.71624 | 35835 ft | 465 kts | 317° |
| 2026-04-18 08:30 | -3.68476 | 104.67176 | 35833 ft | 465 kts | 317° |
| 2026-04-18 08:30 | -3.63763 | 104.62770 | 35834 ft | 464 kts | 317° |
| 2026-04-18 08:31 | -3.59041 | 104.58357 | 35831 ft | 464 kts | 317° |
| 2026-04-18 08:31 | -3.54307 | 104.53932 | 35831 ft | 465 kts | 317° |
| 2026-04-18 08:32 | -3.49579 | 104.49514 | 35832 ft | 465 kts | 317° |
| 2026-04-18 08:32 | -3.44848 | 104.45094 | 35830 ft | 465 kts | 317° |
| 2026-04-18 08:33 | -3.40097 | 104.40655 | 35829 ft | 465 kts | 317° |
| 2026-04-18 08:33 | -3.35373 | 104.36243 | 35829 ft | 465 kts | 317° |
| 2026-04-18 08:34 | -3.30622 | 104.31806 | 35828 ft | 465 kts | 317° |
| 2026-04-18 08:34 | -3.25891 | 104.27388 | 35827 ft | 465 kts | 317° |
| 2026-04-18 08:35 | -3.21178 | 104.22987 | 35823 ft | 465 kts | 317° |
| 2026-04-18 08:35 | -3.16447 | 104.18572 | 35822 ft | 465 kts | 317° |
| 2026-04-18 08:36 | -3.11709 | 104.14149 | 35822 ft | 465 kts | 317° |
| 2026-04-18 08:36 | -3.06971 | 104.09726 | 35817 ft | 466 kts | 317° |
| 2026-04-18 08:37 | -3.02207 | 104.05280 | 35819 ft | 466 kts | 317° |
| 2026-04-18 08:37 | -2.97528 | 104.00914 | 35815 ft | 466 kts | 317° |
| 2026-04-18 08:38 | -2.92786 | 103.96490 | 35817 ft | 466 kts | 317° |
| 2026-04-18 08:38 | -2.88034 | 103.92056 | 35819 ft | 466 kts | 317° |
| 2026-04-18 08:39 | -2.83299 | 103.87640 | 35820 ft | 466 kts | 317° |
| 2026-04-18 08:39 | -2.78532 | 103.83193 | 35822 ft | 466 kts | 317° |
| 2026-04-18 08:40 | -2.73789 | 103.78770 | 35823 ft | 466 kts | 317° |
| 2026-04-18 08:40 | -2.69045 | 103.74346 | 35825 ft | 466 kts | 317° |
| 2026-04-18 08:41 | -2.64313 | 103.69934 | 35826 ft | 466 kts | 317° |
| 2026-04-18 08:41 | -2.59556 | 103.65498 | 35827 ft | 466 kts | 317° |
| 2026-04-18 08:42 | -2.54829 | 103.61091 | 35827 ft | 465 kts | 317° |
| 2026-04-18 08:42 | -2.50101 | 103.56683 | 35830 ft | 465 kts | 317° |
| 2026-04-18 08:43 | -2.45364 | 103.52265 | 35832 ft | 465 kts | 317° |
| 2026-04-18 08:43 | -2.40634 | 103.47853 | 35834 ft | 465 kts | 317° |
| 2026-04-18 08:44 | -2.35874 | 103.43413 | 35836 ft | 465 kts | 317° |
| 2026-04-18 08:44 | -2.31138 | 103.39002 | 35837 ft | 465 kts | 317° |
| 2026-04-18 08:45 | -2.26403 | 103.34587 | 35838 ft | 465 kts | 317° |
| 2026-04-18 08:45 | -2.21655 | 103.30156 | 35839 ft | 465 kts | 317° |
| 2026-04-18 08:46 | -2.16960 | 103.25771 | 35840 ft | 465 kts | 317° |
| 2026-04-18 08:46 | -2.12219 | 103.21343 | 35841 ft | 465 kts | 317° |
| 2026-04-18 08:47 | -2.07512 | 103.16946 | 35842 ft | 465 kts | 317° |
| 2026-04-18 08:47 | -2.02780 | 103.12528 | 35843 ft | 465 kts | 317° |
| 2026-04-18 08:48 | -1.98057 | 103.08117 | 35844 ft | 464 kts | 317° |
| 2026-04-18 08:48 | -1.93310 | 103.03684 | 35842 ft | 464 kts | 317° |
| 2026-04-18 08:49 | -1.88582 | 102.99269 | 35842 ft | 465 kts | 317° |
| 2026-04-18 08:49 | -1.83850 | 102.94850 | 35842 ft | 465 kts | 317° |
| 2026-04-18 08:50 | -1.79105 | 102.90420 | 35842 ft | 465 kts | 317° |
| 2026-04-18 08:50 | -1.74379 | 102.86005 | 35843 ft | 465 kts | 317° |
| 2026-04-18 08:51 | -1.69670 | 102.81607 | 35845 ft | 465 kts | 317° |
| 2026-04-18 08:51 | -1.64922 | 102.77171 | 35846 ft | 465 kts | 317° |
| 2026-04-18 08:52 | -1.60192 | 102.72758 | 35848 ft | 465 kts | 317° |
| 2026-04-18 08:52 | -1.55184 | 102.68645 | 35846 ft | 464 kts | 324° |
| 2026-04-18 08:53 | -1.49804 | 102.65088 | 35849 ft | 464 kts | 328° |
| 2026-04-18 08:53 | -1.44293 | 102.61635 | 35846 ft | 464 kts | 328° |
| 2026-04-18 08:54 | -1.38795 | 102.58185 | 35846 ft | 465 kts | 328° |
| 2026-04-18 08:54 | -1.36076 | 102.56477 | 35641 ft | 465 kts | 328° |
| 2026-04-18 08:54 | -1.33340 | 102.54756 | 35353 ft | 462 kts | 328° |
| 2026-04-18 08:54 | -1.30614 | 102.53043 | 35064 ft | 459 kts | 328° |
| 2026-04-18 08:55 | -1.27913 | 102.51344 | 34780 ft | 456 kts | 328° |
| 2026-04-18 08:55 | -1.25218 | 102.49648 | 34491 ft | 455 kts | 328° |
| 2026-04-18 08:55 | -1.22552 | 102.47971 | 34208 ft | 455 kts | 328° |
| 2026-04-18 08:55 | -1.19863 | 102.46279 | 33925 ft | 456 kts | 328° |
| 2026-04-18 08:56 | -1.17152 | 102.44573 | 33640 ft | 457 kts | 328° |
| 2026-04-18 08:56 | -1.14467 | 102.42883 | 33359 ft | 458 kts | 328° |
| 2026-04-18 08:56 | -1.11762 | 102.41180 | 33075 ft | 458 kts | 328° |
| 2026-04-18 08:56 | -1.09051 | 102.39476 | 32794 ft | 459 kts | 328° |
| 2026-04-18 08:57 | -1.03546 | 102.36277 | 32252 ft | 460 kts | 335° |
| 2026-04-18 08:57 | -1.00595 | 102.35046 | 31769 ft | 461 kts | 341° |
| 2026-04-18 08:57 | -0.97504 | 102.34106 | 31088 ft | 461 kts | 347° |
| 2026-04-18 08:58 | -0.94364 | 102.33493 | 30510 ft | 456 kts | 353° |
| 2026-04-18 08:58 | -0.91243 | 102.33196 | 29997 ft | 450 kts | 359° |
| 2026-04-18 08:58 | -0.88074 | 102.33151 | 29472 ft | 445 kts | 1° |
| 2026-04-18 08:58 | -0.85016 | 102.33172 | 28958 ft | 440 kts | 2° |
| 2026-04-18 08:59 | -0.81923 | 102.33202 | 28429 ft | 436 kts | 2° |
| 2026-04-18 08:59 | -0.78896 | 102.33230 | 27920 ft | 433 kts | 2° |
| 2026-04-18 08:59 | -0.75890 | 102.33253 | 27405 ft | 429 kts | 2° |
| 2026-04-18 08:59 | -0.72903 | 102.33274 | 26889 ft | 426 kts | 2° |
| 2026-04-18 09:00 | -0.69940 | 102.33292 | 26379 ft | 422 kts | 2° |
| 2026-04-18 09:00 | -0.66993 | 102.33310 | 25868 ft | 419 kts | 2° |
| 2026-04-18 09:00 | -0.64076 | 102.33326 | 25359 ft | 416 kts | 2° |
| 2026-04-18 09:00 | -0.61242 | 102.33341 | 24856 ft | 413 kts | 2° |
| 2026-04-18 09:01 | -0.58340 | 102.33358 | 24345 ft | 411 kts | 2° |
| 2026-04-18 09:01 | -0.55381 | 102.33374 | 23816 ft | 408 kts | 2° |
| 2026-04-18 09:01 | -0.52513 | 102.33365 | 23281 ft | 407 kts | 358° |
| 2026-04-18 09:01 | -0.49730 | 102.32774 | 22755 ft | 408 kts | 340° |
| 2026-04-18 09:02 | -0.47266 | 102.31351 | 22241 ft | 409 kts | 322° |
| 2026-04-18 09:02 | -0.45189 | 102.29421 | 21754 ft | 408 kts | 317° |
| 2026-04-18 09:02 | -0.43163 | 102.27423 | 21273 ft | 405 kts | 316° |
| 2026-04-18 09:02 | -0.41159 | 102.25440 | 20805 ft | 403 kts | 316° |
| 2026-04-18 09:03 | -0.39191 | 102.23505 | 20359 ft | 400 kts | 316° |
| 2026-04-18 09:03 | -0.37197 | 102.21557 | 19896 ft | 397 kts | 316° |
| 2026-04-18 09:03 | -0.35221 | 102.19630 | 19424 ft | 394 kts | 316° |
| 2026-04-18 09:03 | -0.33262 | 102.17726 | 18960 ft | 392 kts | 316° |
| 2026-04-18 09:04 | -0.31322 | 102.15842 | 18508 ft | 389 kts | 316° |
| 2026-04-18 09:04 | -0.29357 | 102.13935 | 18036 ft | 387 kts | 316° |
| 2026-04-18 09:04 | -0.27442 | 102.12079 | 17586 ft | 385 kts | 316° |
| 2026-04-18 09:04 | -0.25521 | 102.10216 | 17138 ft | 382 kts | 316° |
| 2026-04-18 09:05 | -0.23598 | 102.08351 | 16678 ft | 380 kts | 316° |
| 2026-04-18 09:05 | -0.21705 | 102.06516 | 16223 ft | 378 kts | 316° |
| 2026-04-18 09:05 | -0.19806 | 102.04675 | 15765 ft | 376 kts | 316° |
| 2026-04-18 09:05 | -0.17929 | 102.02856 | 15327 ft | 374 kts | 316° |
| 2026-04-18 09:06 | -0.16085 | 102.01069 | 14892 ft | 371 kts | 316° |
| 2026-04-18 09:06 | -0.14225 | 101.99265 | 14435 ft | 369 kts | 315° |
| 2026-04-18 09:06 | -0.12399 | 101.97495 | 13975 ft | 367 kts | 315° |
| 2026-04-18 09:06 | -0.10556 | 101.95708 | 13528 ft | 364 kts | 315° |
| 2026-04-18 09:07 | -0.08964 | 101.94164 | 13146 ft | 361 kts | 315° |
| 2026-04-18 09:07 | -0.08100 | 101.93327 | 12933 ft | 360 kts | 315° |
| 2026-04-18 09:07 | -0.06308 | 101.91588 | 12492 ft | 357 kts | 315° |
| 2026-04-18 09:07 | -0.04507 | 101.89838 | 12010 ft | 355 kts | 315° |
| 2026-04-18 09:08 | -0.02740 | 101.88123 | 11543 ft | 353 kts | 315° |
| 2026-04-18 09:08 | -0.00991 | 101.86427 | 11078 ft | 350 kts | 315° |
| 2026-04-18 09:08 | 0.00749 | 101.84738 | 10625 ft | 348 kts | 315° |
| 2026-04-18 09:08 | 0.02460 | 101.83077 | 10326 ft | 338 kts | 315° |
| 2026-04-18 09:09 | 0.04133 | 101.81454 | 10193 ft | 324 kts | 315° |
| 2026-04-18 09:09 | 0.05726 | 101.79908 | 10074 ft | 311 kts | 315° |
| 2026-04-18 09:09 | 0.07272 | 101.78409 | 9882 ft | 302 kts | 315° |
| 2026-04-18 09:09 | 0.08780 | 101.76945 | 9495 ft | 301 kts | 315° |
| 2026-04-18 09:10 | 0.10274 | 101.75497 | 9119 ft | 299 kts | 316° |
| 2026-04-18 09:10 | 0.11759 | 101.74010 | 8750 ft | 298 kts | 309° |
| 2026-04-18 09:10 | 0.12815 | 101.72240 | 8370 ft | 296 kts | 290° |
| 2026-04-18 09:10 | 0.13357 | 101.70268 | 8015 ft | 294 kts | 283° |
| 2026-04-18 09:11 | 0.13788 | 101.68285 | 7664 ft | 292 kts | 282° |
| 2026-04-18 09:11 | 0.14215 | 101.66286 | 7309 ft | 290 kts | 282° |
| 2026-04-18 09:11 | 0.14639 | 101.64339 | 6963 ft | 288 kts | 282° |
| 2026-04-18 09:11 | 0.15071 | 101.62390 | 6621 ft | 286 kts | 283° |
| 2026-04-18 09:12 | 0.15506 | 101.60455 | 6275 ft | 284 kts | 283° |
| 2026-04-18 09:12 | 0.15941 | 101.58531 | 5934 ft | 282 kts | 283° |
| 2026-04-18 09:12 | 0.16370 | 101.56638 | 5603 ft | 280 kts | 283° |
| 2026-04-18 09:12 | 0.16803 | 101.54737 | 5268 ft | 279 kts | 283° |
| 2026-04-18 09:13 | 0.17229 | 101.52859 | 4939 ft | 277 kts | 283° |
| 2026-04-18 09:13 | 0.17656 | 101.50975 | 4606 ft | 275 kts | 283° |
| 2026-04-18 09:13 | 0.18079 | 101.49116 | 4276 ft | 274 kts | 283° |
| 2026-04-18 09:13 | 0.18498 | 101.47280 | 3946 ft | 272 kts | 283° |
| 2026-04-18 09:14 | 0.18921 | 101.45434 | 3621 ft | 271 kts | 285° |
| 2026-04-18 09:14 | 0.19740 | 101.43759 | 3247 ft | 268 kts | 315° |
| 2026-04-18 09:14 | 0.21296 | 101.42829 | 3007 ft | 263 kts | 347° |
| 2026-04-18 09:14 | 0.23133 | 101.42798 | 2990 ft | 262 kts | 12° |
| 2026-04-18 09:15 | 0.24887 | 101.43204 | 2887 ft | 254 kts | 13° |
| 2026-04-18 09:15 | 0.26044 | 101.43462 | 2740 ft | 250 kts | 13° |
| 2026-04-18 09:15 | 0.28267 | 101.43896 | 2552 ft | 238 kts | 7° |
| 2026-04-18 09:15 | 0.29911 | 101.44013 | 2507 ft | 225 kts | 2° |
| 2026-04-18 09:16 | 0.31424 | 101.44050 | 2544 ft | 206 kts | 2° |
| 2026-04-18 09:16 | 0.32824 | 101.44076 | 2359 ft | 195 kts | 2° |
| 2026-04-18 09:16 | 0.34140 | 101.44108 | 2078 ft | 183 kts | 3° |
| 2026-04-18 09:16 | 0.35384 | 101.44143 | 1825 ft | 173 kts | 3° |
| 2026-04-18 09:17 | 0.36570 | 101.44178 | 1593 ft | 163 kts | 3° |
| 2026-04-18 09:17 | 0.37662 | 101.44209 | 1406 ft | 151 kts | 3° |
| 2026-04-18 09:17 | 0.38714 | 101.44241 | 1226 ft | 149 kts | 3° |
| 2026-04-18 09:17 | 0.39755 | 101.44272 | 1048 ft | 149 kts | 4° |
| 2026-04-18 09:18 | 0.40802 | 101.44315 | 854 ft | 150 kts | 4° |
| 2026-04-18 09:18 | 0.41843 | 101.44345 | 674 ft | 150 kts | 2° |
| 2026-04-18 09:18 | 0.42896 | 101.44354 | 484 ft | 150 kts | 1° |
| 2026-04-18 09:18 | 0.43943 | 101.44389 | 295 ft | 150 kts | 4° |
| 2026-04-18 09:19 | 0.44998 | 101.44418 | 130 ft | 148 kts | 3° |
| 2026-04-18 09:19 | 0.45951 | 101.44446 | 135 ft | 118 kts | 3° |
| 2026-04-18 09:19 | 0.46563 | 101.44463 | 142 ft | 50 kts | 2° |
| 2026-04-18 09:19 | 0.46842 | 101.44473 | 144 ft | 38 kts | 1° |
| 2026-04-18 09:20 | 0.47023 | 101.44487 | 140 ft | 14 kts | 26° |
| 2026-04-18 09:20 | 0.47067 | 101.44476 | 140 ft | 7 kts | 199° |
| 2026-04-18 09:20 | 0.47015 | 101.44476 | 141 ft | 7 kts | 180° |
| 2026-04-18 09:20 | 0.46962 | 101.44476 | 142 ft | 8 kts | 181° |
| 2026-04-18 09:21 | 0.46900 | 101.44475 | 143 ft | 9 kts | 181° |
| 2026-04-18 09:21 | 0.46826 | 101.44473 | 144 ft | 12 kts | 181° |
| 2026-04-18 09:21 | 0.46723 | 101.44469 | 144 ft | 16 kts | 181° |
| 2026-04-18 09:21 | 0.46636 | 101.44500 | 143 ft | 13 kts | 106° |
| 2026-04-18 09:22 | 0.46625 | 101.44590 | 142 ft | 9 kts | 123° |
| 2026-04-18 09:22 | 0.46559 | 101.44596 | 142 ft | 10 kts | 182° |
| 2026-04-18 09:22 | 0.46477 | 101.44592 | 141 ft | 12 kts | 183° |
| 2026-04-18 09:22 | 0.46443 | 101.44633 | 141 ft | 9 kts | 92° |
| 2026-04-18 09:23 | 0.46441 | 101.44679 | 141 ft | 2 kts | 91° |
| 2026-04-18 09:23 | 0.46441 | 101.44681 | 141 ft | 0 kts | 91° |